createdAt,value
2019-01-28T00:00:12.677Z,55.33
2019-01-28T00:02:46.523Z,54.85
2019-01-28T00:05:18.941Z,53.99
2019-01-28T00:08:10.363Z,53.45
2019-01-28T00:10:42.573Z,54.69
2019-01-28T00:13:15.702Z,54.08
2019-01-28T00:15:49.221Z,53.91
2019-01-28T00:18:20.062Z,54.27
2019-01-28T00:20:53.176Z,55.96
2019-01-28T00:23:23.791Z,56.31
2019-01-28T00:25:55.424Z,56.43
2019-01-28T00:28:26.648Z,57.37
2019-01-28T00:30:58.720Z,55.83
2019-01-28T00:33:34.798Z,55.90
2019-01-28T00:36:06.502Z,55.18
2019-01-28T00:38:39.160Z,56.57
2019-01-28T00:41:09.584Z,55.21
2019-01-28T00:43:40.975Z,54.94
2019-01-28T00:46:13.210Z,55.88
2019-01-28T00:48:45.478Z,55.60
2019-01-28T00:51:17.189Z,56.43
2019-01-28T00:53:51.660Z,55.55
2019-01-28T00:56:24.156Z,57.29
2019-01-28T00:58:56.899Z,56.50
2019-01-28T01:01:27.632Z,55.54
2019-01-28T01:03:59.208Z,58.43
2019-01-28T01:06:31.141Z,59.77
2019-01-28T01:09:04.334Z,60.85
2019-01-28T01:11:36.514Z,59.76
2019-01-28T01:14:11.416Z,59.99
2019-01-28T01:16:46.484Z,60.92
2019-01-28T01:19:20.130Z,59.46
2019-01-28T01:21:54.843Z,59.23
2019-01-28T01:24:32.459Z,59.18
2019-01-28T01:27:11.078Z,59.20
2019-01-28T01:29:43.171Z,59.40
2019-01-28T01:32:14.494Z,57.80
2019-01-28T01:34:53.830Z,57.35
2019-01-28T01:37:28.684Z,57.86
2019-01-28T01:40:00.089Z,58.23
2019-01-28T01:42:32.855Z,58.62
2019-01-28T01:45:04.031Z,57.53
2019-01-28T01:47:37.278Z,57.27
2019-01-28T01:50:10.283Z,57.94
2019-01-28T01:52:42.906Z,59.88
2019-01-28T01:55:17.658Z,60.17
2019-01-28T01:57:50.912Z,58.89
2019-01-28T02:00:22.562Z,60.22
2019-01-28T02:02:56.602Z,58.96
2019-01-28T02:05:29.488Z,59.12
2019-01-28T02:08:02.941Z,58.56
2019-01-28T02:10:33.503Z,61.32
2019-01-28T02:13:08.778Z,60.37
2019-01-28T02:15:43.897Z,60.05
2019-01-28T02:18:18.526Z,62.72
2019-01-28T02:20:51.268Z,61.41
2019-01-28T02:23:22.299Z,64.23
2019-01-28T02:25:54.622Z,62.58
2019-01-28T02:28:25.964Z,61.99
2019-01-28T02:30:57.973Z,62.90
2019-01-28T02:33:29.924Z,61.95
2019-01-28T02:36:03.940Z,63.11
2019-01-28T02:38:39.381Z,63.21
2019-01-28T02:41:11.313Z,62.67
2019-01-28T02:43:45.093Z,61.60
2019-01-28T02:46:17.897Z,63.39
2019-01-28T02:48:49.880Z,65.00
2019-01-28T02:51:27.901Z,62.52
2019-01-28T02:54:02.373Z,62.68
2019-01-28T02:56:33.571Z,63.24
2019-01-28T02:59:06.472Z,62.17
2019-01-28T03:01:40.637Z,63.13
2019-01-28T03:04:14.385Z,63.94
2019-01-28T03:06:45.738Z,63.18
2019-01-28T03:09:17.746Z,62.71
2019-01-28T03:11:49.699Z,62.13
2019-01-28T03:14:21.051Z,61.89
2019-01-28T03:16:54.637Z,61.69
2019-01-28T03:19:26.513Z,63.23
2019-01-28T03:21:57.601Z,63.75
2019-01-28T03:24:30.781Z,65.07
2019-01-28T03:27:01.445Z,64.35
2019-01-28T03:29:33.819Z,64.72
2019-01-28T03:32:05.052Z,65.55
2019-01-28T03:34:39.386Z,65.47
2019-01-28T03:37:12.990Z,63.56
2019-01-28T03:39:43.794Z,66.46
2019-01-28T03:42:16.724Z,64.95
2019-01-28T03:44:51.513Z,63.88
2019-01-28T03:47:25.988Z,64.23
2019-01-28T03:49:59.994Z,64.87
2019-01-28T03:52:35.393Z,65.04
2019-01-28T03:55:19.582Z,64.22
2019-01-28T03:57:50.931Z,63.96
2019-01-28T04:00:26.027Z,65.36
2019-01-28T04:02:57.501Z,65.04
2019-01-28T04:05:28.599Z,64.81
2019-01-28T04:08:00.245Z,64.04
2019-01-28T04:10:33.206Z,64.46
2019-01-28T04:13:07.258Z,62.50
2019-01-28T04:15:38.977Z,63.90
2019-01-28T04:18:09.575Z,62.32
2019-01-28T04:20:41.285Z,61.17
2019-01-28T04:23:13.026Z,62.00
2019-01-28T04:25:44.955Z,61.37
2019-01-28T04:28:16.752Z,62.16
2019-01-28T04:30:49.365Z,60.80
2019-01-28T04:33:20.548Z,59.54
2019-01-28T04:35:51.959Z,59.02
2019-01-28T04:38:26.058Z,60.02
2019-01-28T04:40:57.254Z,63.70
2019-01-28T04:43:28.859Z,62.22
2019-01-28T04:46:04.537Z,62.01
2019-01-28T04:48:36.424Z,62.11
2019-01-28T04:51:10.062Z,59.96
2019-01-28T04:53:44.065Z,60.77
2019-01-28T04:56:19.032Z,61.81
2019-01-28T04:58:54.287Z,61.64
2019-01-28T05:01:28.187Z,62.55
2019-01-28T05:04:00.435Z,62.86
2019-01-28T05:06:34.049Z,62.21
2019-01-28T05:09:09.857Z,62.32
2019-01-28T05:11:44.233Z,61.99
2019-01-28T05:14:23.636Z,62.39
2019-01-28T05:16:57.986Z,60.24
2019-01-28T05:19:31.006Z,62.76
2019-01-28T05:22:04.192Z,61.52
2019-01-28T05:24:37.022Z,61.62
2019-01-28T05:27:08.334Z,62.91
2019-01-28T05:29:39.358Z,62.79
2019-01-28T05:32:11.399Z,62.24
2019-01-28T05:34:45.820Z,61.81
2019-01-28T05:37:23.904Z,61.73
2019-01-28T05:40:03.271Z,61.34
2019-01-28T05:42:37.820Z,60.46
2019-01-28T05:45:11.763Z,60.14
2019-01-28T05:47:43.068Z,59.90
2019-01-28T05:50:14.461Z,60.85
2019-01-28T05:52:48.689Z,63.53
2019-01-28T05:55:19.554Z,61.93
2019-01-28T05:57:51.296Z,61.04
2019-01-28T06:00:29.137Z,61.13
2019-01-28T06:03:00.740Z,61.40
2019-01-28T06:05:33.732Z,61.63
2019-01-28T06:08:06.306Z,60.64
2019-01-28T06:10:39.782Z,61.85
2019-01-28T06:13:17.676Z,62.17
2019-01-28T06:15:53.150Z,61.45
2019-01-28T06:18:27.902Z,61.19
2019-01-28T06:20:58.801Z,61.25
2019-01-28T06:23:30.498Z,61.83
2019-01-28T06:26:02.444Z,63.45
2019-01-28T06:28:36.974Z,65.96
2019-01-28T06:31:08.881Z,66.17
2019-01-28T06:33:40.896Z,64.86
2019-01-28T06:36:14.705Z,64.21
2019-01-28T06:38:57.183Z,64.18
2019-01-28T06:41:29.484Z,62.94
2019-01-28T06:44:00.840Z,63.22
2019-01-28T06:46:34.000Z,61.86
2019-01-28T06:49:09.393Z,61.55
2019-01-28T06:51:43.001Z,60.50
2019-01-28T06:54:15.762Z,60.12
2019-01-28T06:56:50.233Z,59.14
2019-01-28T06:59:22.902Z,59.09
2019-01-28T07:01:55.389Z,59.98
2019-01-28T07:04:29.104Z,58.18
2019-01-28T07:07:00.244Z,58.90
2019-01-28T07:09:32.603Z,58.62
2019-01-28T07:12:06.121Z,58.01
2019-01-28T07:14:37.969Z,58.17
2019-01-28T07:17:09.198Z,58.70
2019-01-28T07:19:41.387Z,58.63
2019-01-28T07:22:14.310Z,59.84
2019-01-28T07:24:46.880Z,57.89
2019-01-28T07:27:17.656Z,57.48
2019-01-28T07:29:49.074Z,60.69
2019-01-28T07:32:23.569Z,59.09
2019-01-28T07:34:57.968Z,59.31
2019-01-28T07:37:30.086Z,59.87
2019-01-28T07:40:02.156Z,60.29
2019-01-28T07:42:36.087Z,59.08
2019-01-28T07:45:13.992Z,58.41
2019-01-28T07:47:47.328Z,59.83
2019-01-28T07:50:29.868Z,59.90
2019-01-28T07:53:04.769Z,60.54
2019-01-28T07:55:35.860Z,60.53
2019-01-28T07:58:07.786Z,60.33
2019-01-28T08:00:42.310Z,60.56
2019-01-28T08:03:16.505Z,62.60
2019-01-28T08:05:53.671Z,61.14
2019-01-28T08:08:32.358Z,59.64
2019-01-28T08:11:06.239Z,60.31
2019-01-28T08:13:37.894Z,59.56
2019-01-28T08:16:11.381Z,59.06
2019-01-28T08:18:45.781Z,59.71
2019-01-28T08:21:20.468Z,58.31
2019-01-28T08:23:51.695Z,57.62
2019-01-28T08:26:27.119Z,60.03
2019-01-28T08:29:03.247Z,59.64
2019-01-28T08:31:37.196Z,59.54
2019-01-28T08:34:21.139Z,62.40
2019-01-28T08:36:54.777Z,60.63
2019-01-28T08:39:27.098Z,60.11
2019-01-28T08:42:00.538Z,58.89
2019-01-28T08:44:35.691Z,59.33
2019-01-28T08:47:12.455Z,58.90
2019-01-28T08:49:45.367Z,59.00
2019-01-28T08:52:19.024Z,60.40
2019-01-28T08:54:53.609Z,60.66
2019-01-28T08:57:29.507Z,62.15
2019-01-28T09:00:03.641Z,61.75
2019-01-28T09:02:37.527Z,62.75
2019-01-28T09:05:10.119Z,63.35
2019-01-28T09:07:42.178Z,61.89
2019-01-28T09:10:15.675Z,61.08
2019-01-28T09:12:51.631Z,60.21
2019-01-28T09:15:23.579Z,60.02
2019-01-28T09:18:00.254Z,60.24
2019-01-28T09:20:33.476Z,60.26
2019-01-28T09:23:04.433Z,62.30
2019-01-28T09:25:37.087Z,62.92
2019-01-28T09:28:18.065Z,61.73
2019-01-28T09:30:49.640Z,61.29
2019-01-28T09:33:21.668Z,61.35
2019-01-28T09:35:52.380Z,59.69
2019-01-28T09:38:25.474Z,59.22
2019-01-28T09:41:00.888Z,59.06
2019-01-28T09:43:33.451Z,58.19
2019-01-28T09:46:09.740Z,57.98
2019-01-28T09:48:43.667Z,57.42
2019-01-28T09:51:20.670Z,57.33
2019-01-28T09:53:53.787Z,57.16
2019-01-28T09:56:24.733Z,57.69
2019-01-28T09:58:59.180Z,57.13
2019-01-28T10:01:36.011Z,56.84
2019-01-28T10:04:08.717Z,57.12
2019-01-28T10:06:43.231Z,57.23
2019-01-28T10:09:13.970Z,56.21
2019-01-28T10:11:46.242Z,55.87
2019-01-28T10:14:19.227Z,56.20
2019-01-28T10:16:50.411Z,56.25
2019-01-28T10:19:24.859Z,56.38
2019-01-28T10:22:08.162Z,56.40
2019-01-28T10:24:40.067Z,56.56
2019-01-28T10:27:14.289Z,57.33
2019-01-28T10:29:47.178Z,58.25
2019-01-28T10:32:24.399Z,58.18
2019-01-28T10:34:56.865Z,58.73
2019-01-28T10:37:30.681Z,58.69
2019-01-28T10:40:03.944Z,58.76
2019-01-28T10:42:37.248Z,58.26
2019-01-28T10:45:14.871Z,58.21
2019-01-28T10:47:49.563Z,58.31
2019-01-28T10:50:22.487Z,57.86
2019-01-28T10:53:01.191Z,57.97
2019-01-28T10:55:39.745Z,57.91
2019-01-28T10:58:15.341Z,57.85
2019-01-28T11:01:10.896Z,57.58
2019-01-28T11:03:41.901Z,57.49
2019-01-28T11:06:16.155Z,57.78
2019-01-28T11:08:48.035Z,57.56
2019-01-28T11:11:22.657Z,57.20
2019-01-28T11:13:54.106Z,57.50
2019-01-28T11:16:28.645Z,57.47
2019-01-28T11:19:02.921Z,57.44
2019-01-28T11:21:35.849Z,57.19
2019-01-28T11:24:06.751Z,56.34
2019-01-28T11:26:40.985Z,56.60
2019-01-28T11:29:13.208Z,57.57
2019-01-28T11:31:48.827Z,58.42
2019-01-28T11:34:20.761Z,57.71
2019-01-28T11:36:56.910Z,57.86
2019-01-28T11:39:32.267Z,57.97
2019-01-28T11:42:10.022Z,58.94
2019-01-28T11:44:44.696Z,57.70
2019-01-28T11:47:17.690Z,57.56
2019-01-28T11:49:55.483Z,57.53
2019-01-28T11:52:29.428Z,57.94
2019-01-28T11:55:00.428Z,58.69
2019-01-28T11:57:33.236Z,58.88
2019-01-28T12:00:06.483Z,58.21
2019-01-28T12:02:38.458Z,57.17
2019-01-28T12:05:12.333Z,57.31
2019-01-28T12:07:46.942Z,57.18
2019-01-28T12:10:20.487Z,57.37
2019-01-28T12:12:56.557Z,57.22
2019-01-28T12:15:28.090Z,58.30
2019-01-28T12:17:59.954Z,58.37
2019-01-28T12:20:32.916Z,58.69
2019-01-28T12:23:06.372Z,58.40
2019-01-28T12:25:37.662Z,58.11
2019-01-28T12:28:09.703Z,57.04
2019-01-28T12:30:44.183Z,57.16
2019-01-28T12:33:18.831Z,56.95
2019-01-28T12:35:53.722Z,57.55
2019-01-28T12:38:26.993Z,56.63
2019-01-28T12:40:58.142Z,56.33
2019-01-28T12:43:30.177Z,57.66
2019-01-28T12:46:03.375Z,57.85
2019-01-28T12:48:36.090Z,57.43
2019-01-28T12:51:11.426Z,60.35
2019-01-28T12:53:46.260Z,58.68
2019-01-28T12:56:21.283Z,58.28
2019-01-28T12:58:54.588Z,59.65
2019-01-28T13:01:27.272Z,58.12
2019-01-28T13:04:01.215Z,59.11
2019-01-28T13:06:34.325Z,59.12
2019-01-28T13:09:09.095Z,58.51
2019-01-28T13:11:47.042Z,58.63
2019-01-28T13:14:19.593Z,58.84
2019-01-28T13:16:55.737Z,59.00
2019-01-28T13:19:33.840Z,58.38
2019-01-28T13:22:04.957Z,58.25
2019-01-28T13:24:36.549Z,59.17
2019-01-28T13:27:08.204Z,58.96
2019-01-28T13:29:41.996Z,58.66
2019-01-28T13:32:14.247Z,58.67
2019-01-28T13:34:50.404Z,57.41
2019-01-28T13:37:22.409Z,57.91
2019-01-28T13:39:54.515Z,56.94
2019-01-28T13:42:30.026Z,56.54
2019-01-28T13:45:06.696Z,56.34
2019-01-28T13:47:38.158Z,56.10
2019-01-28T13:50:15.458Z,56.84
2019-01-28T13:52:49.858Z,57.35
2019-01-28T13:55:24.984Z,58.34
2019-01-28T13:58:07.485Z,58.12
2019-01-28T14:00:41.057Z,57.99
2019-01-28T14:03:13.604Z,58.05
2019-01-28T14:05:47.266Z,57.06
2019-01-28T14:08:19.583Z,57.77
2019-01-28T14:10:56.328Z,57.41
2019-01-28T14:13:28.076Z,57.24
2019-01-28T14:16:03.607Z,57.50
2019-01-28T14:18:35.520Z,57.13
2019-01-28T14:21:11.255Z,57.28
2019-01-28T14:23:46.727Z,57.29
2019-01-28T14:26:30.745Z,56.96
2019-01-28T14:29:12.340Z,56.89
2019-01-28T14:31:45.384Z,57.08
2019-01-28T14:34:18.270Z,57.38
2019-01-28T14:36:52.739Z,56.52
2019-01-28T14:39:26.936Z,55.35
2019-01-28T14:41:59.936Z,55.90
2019-01-28T14:44:31.445Z,55.26
2019-01-28T14:47:03.486Z,55.70
2019-01-28T14:49:37.115Z,55.48
2019-01-28T14:52:10.623Z,56.32
2019-01-28T14:54:47.120Z,56.67
2019-01-28T14:57:20.038Z,56.17
2019-01-28T15:00:00.880Z,55.69
2019-01-28T15:02:35.868Z,56.19
2019-01-28T15:05:14.571Z,57.44
2019-01-28T15:07:48.564Z,56.86
2019-01-28T15:10:23.348Z,56.44
2019-01-28T15:12:58.224Z,55.30
2019-01-28T15:15:38.115Z,54.43
2019-01-28T15:18:12.092Z,54.35
2019-01-28T15:21:06.747Z,53.55
2019-01-28T15:23:42.523Z,54.13
2019-01-28T15:26:13.704Z,53.78
2019-01-28T15:28:51.170Z,52.89
2019-01-28T15:31:22.686Z,53.20
2019-01-28T15:34:00.457Z,52.70
2019-01-28T15:36:32.787Z,52.67
2019-01-28T15:39:07.579Z,52.19
2019-01-28T15:41:41.233Z,52.58
2019-01-28T15:44:17.987Z,51.84
2019-01-28T15:47:06.252Z,51.81
2019-01-28T15:49:43.052Z,51.33
2019-01-28T15:52:18.268Z,50.65
2019-01-28T15:54:54.839Z,51.40
2019-01-28T15:57:27.131Z,51.47
2019-01-28T15:59:59.972Z,50.52
2019-01-28T16:02:35.295Z,50.90
2019-01-28T16:05:23.811Z,49.39
2019-01-28T16:07:59.144Z,49.50
2019-01-28T16:10:33.161Z,49.42
2019-01-28T16:13:14.839Z,49.10
2019-01-28T16:15:48.445Z,48.63
2019-01-28T16:18:20.941Z,49.31
2019-01-28T16:20:53.710Z,47.75
2019-01-28T16:23:25.086Z,47.97
2019-01-28T16:25:56.707Z,48.04
2019-01-28T16:28:29.562Z,47.64
2019-01-28T16:31:02.896Z,47.12
2019-01-28T16:33:48.540Z,47.54
2019-01-28T16:36:19.731Z,47.56
2019-01-28T16:38:50.687Z,47.57
2019-01-28T16:41:25.831Z,46.76
2019-01-28T16:43:59.035Z,46.63
2019-01-28T16:46:31.201Z,47.27
2019-01-28T16:49:02.657Z,46.70
2019-01-28T16:51:33.866Z,46.61
2019-01-28T16:54:05.747Z,46.64
2019-01-28T16:56:37.760Z,46.64
2019-01-28T16:59:08.782Z,46.28
2019-01-28T17:01:39.798Z,46.48
2019-01-28T17:04:12.217Z,47.25
2019-01-28T17:06:51.015Z,46.37
2019-01-28T17:09:23.156Z,46.69
2019-01-28T17:11:58.555Z,46.74
2019-01-28T17:14:32.828Z,47.10
2019-01-28T17:17:06.108Z,46.68
2019-01-28T17:19:39.611Z,47.23
2019-01-28T17:22:13.415Z,46.82
2019-01-28T17:24:45.295Z,46.82
2019-01-28T17:27:18.127Z,47.78
2019-01-28T17:29:50.165Z,48.09
2019-01-28T17:32:23.511Z,47.57
2019-01-28T17:34:56.346Z,46.97
2019-01-28T17:37:28.423Z,46.80
2019-01-28T17:40:00.867Z,46.53
2019-01-28T17:42:32.544Z,46.88
2019-01-28T17:45:04.828Z,47.14
2019-01-28T17:47:38.501Z,45.99
2019-01-28T17:50:12.421Z,45.42
2019-01-28T17:53:00.556Z,45.59
2019-01-28T17:55:37.894Z,45.95
2019-01-28T17:58:10.759Z,46.12
2019-01-28T18:01:00.405Z,46.09
2019-01-28T18:03:36.072Z,45.56
2019-01-28T18:06:09.143Z,46.08
2019-01-28T18:08:40.141Z,45.85
2019-01-28T18:11:10.684Z,46.60
2019-01-28T18:13:46.115Z,46.23
2019-01-28T18:16:18.225Z,46.44
2019-01-28T18:18:50.919Z,46.59
2019-01-28T18:21:23.397Z,46.36
2019-01-28T18:23:55.230Z,46.99
2019-01-28T18:26:26.640Z,49.18
2019-01-28T18:29:03.850Z,48.65
2019-01-28T18:31:39.764Z,48.89
2019-01-28T18:34:10.357Z,49.14
2019-01-28T18:36:43.327Z,49.17
2019-01-28T18:39:14.672Z,48.89
2019-01-28T18:41:47.438Z,49.37
2019-01-28T18:44:20.283Z,49.32
2019-01-28T18:46:54.105Z,48.99
2019-01-28T18:49:25.278Z,49.56
2019-01-28T18:52:10.816Z,49.97
2019-01-28T18:54:43.134Z,49.35
2019-01-28T18:57:15.382Z,49.93
2019-01-28T18:59:53.230Z,50.06
2019-01-28T19:02:26.809Z,50.03
2019-01-28T19:04:59.109Z,50.61
2019-01-28T19:07:53.530Z,50.83
2019-01-28T19:10:49.281Z,49.87
2019-01-28T19:13:39.968Z,50.40
2019-01-28T19:16:39.081Z,50.49
2019-01-28T19:19:27.741Z,50.33
2019-01-28T19:22:03.240Z,49.30
2019-01-28T19:24:34.380Z,50.00
2019-01-28T19:27:09.117Z,50.10
2019-01-28T19:29:40.366Z,50.21
2019-01-28T19:32:13.590Z,50.05
2019-01-28T19:34:55.435Z,50.61
2019-01-28T19:37:29.072Z,51.32
2019-01-28T19:40:09.468Z,50.88
2019-01-28T19:42:42.226Z,51.03
2019-01-28T19:45:24.219Z,51.29
2019-01-28T19:48:02.079Z,51.21
2019-01-28T19:50:34.272Z,51.43
2019-01-28T19:53:07.114Z,51.50
2019-01-28T19:55:39.322Z,50.79
2019-01-28T19:58:11.274Z,50.32
2019-01-28T20:00:45.230Z,50.90
2019-01-28T20:03:18.198Z,50.95
2019-01-28T20:05:50.686Z,50.28
2019-01-28T20:08:24.646Z,50.07
2019-01-28T20:10:56.788Z,50.02
2019-01-28T20:13:29.327Z,50.28
2019-01-28T20:16:02.439Z,50.82
2019-01-28T20:18:37.266Z,51.46
2019-01-28T20:21:09.449Z,51.33
2019-01-28T20:23:41.702Z,50.83
2019-01-28T20:26:15.069Z,50.00
2019-01-28T20:28:46.358Z,49.96
2019-01-28T20:31:17.721Z,49.61
2019-01-28T20:33:49.833Z,49.44
2019-01-28T20:36:24.124Z,48.97
2019-01-28T20:39:05.383Z,49.00
2019-01-28T20:41:36.865Z,49.70
2019-01-28T20:44:12.080Z,50.25
2019-01-28T20:46:46.084Z,49.82
2019-01-28T20:49:18.633Z,49.44
2019-01-28T20:51:55.272Z,49.81
2019-01-28T20:54:26.561Z,50.67
2019-01-28T20:56:57.832Z,50.05
2019-01-28T20:59:38.110Z,50.65
2019-01-28T21:02:10.574Z,51.19
2019-01-28T21:04:44.510Z,51.08
2019-01-28T21:07:18.870Z,50.17
2019-01-28T21:09:50.140Z,49.88
2019-01-28T21:12:23.553Z,49.80
2019-01-28T21:14:56.467Z,49.81
2019-01-28T21:17:31.670Z,49.54
2019-01-28T21:20:04.146Z,49.88
2019-01-28T21:22:36.336Z,50.48
2019-01-28T21:25:09.018Z,49.93
2019-01-28T21:27:44.105Z,49.95
2019-01-28T21:30:24.991Z,50.14
2019-01-28T21:32:55.787Z,49.14
2019-01-28T21:35:54.534Z,50.21
2019-01-28T21:38:33.656Z,49.88
2019-01-28T21:41:06.002Z,49.83
2019-01-28T21:43:39.492Z,50.79
2019-01-28T21:46:13.933Z,50.64
2019-01-28T21:48:45.486Z,49.86
2019-01-28T21:51:18.890Z,50.20
2019-01-28T21:53:51.581Z,50.42
2019-01-28T21:56:24.474Z,50.14
2019-01-28T21:58:57.122Z,49.81
2019-01-28T22:01:29.955Z,50.21
2019-01-28T22:04:11.055Z,49.97
2019-01-28T22:06:44.179Z,49.70
2019-01-28T22:09:18.050Z,49.90
2019-01-28T22:11:50.365Z,49.62
2019-01-28T22:14:22.351Z,49.94
2019-01-28T22:16:53.619Z,50.13
2019-01-28T22:19:26.526Z,51.09
2019-01-28T22:21:59.549Z,50.32
2019-01-28T22:24:31.524Z,49.93
2019-01-28T22:27:03.460Z,50.40
2019-01-28T22:29:34.676Z,50.53
2019-01-28T22:32:06.553Z,50.41
2019-01-28T22:34:47.516Z,50.74
2019-01-28T22:37:14.513Z,50.24
2019-01-28T22:39:45.865Z,51.27
2019-01-28T22:42:21.785Z,50.60
2019-01-28T22:44:54.803Z,50.46
2019-01-28T22:47:28.047Z,50.78
2019-01-28T22:50:01.446Z,50.29
2019-01-28T22:52:33.362Z,51.29
2019-01-28T22:55:05.293Z,50.62
2019-01-28T22:57:36.575Z,51.02
2019-01-28T23:00:22.337Z,50.98
2019-01-28T23:02:56.519Z,51.19
2019-01-28T23:05:29.270Z,51.28
2019-01-28T23:08:16.907Z,51.86
2019-01-28T23:10:52.928Z,51.84
2019-01-28T23:13:24.888Z,53.46
2019-01-28T23:15:57.347Z,52.75
2019-01-28T23:18:28.952Z,52.71
2019-01-28T23:21:00.533Z,51.72
2019-01-28T23:23:33.129Z,51.02
2019-01-28T23:26:07.048Z,51.23
2019-01-28T23:28:38.384Z,51.35
2019-01-28T23:31:10.051Z,51.83
2019-01-28T23:33:41.433Z,51.42
2019-01-28T23:36:11.991Z,51.90
2019-01-28T23:38:43.349Z,52.00
2019-01-28T23:41:14.740Z,51.22
2019-01-28T23:43:47.010Z,53.29
2019-01-28T23:46:18.456Z,52.25
2019-01-28T23:48:50.195Z,51.84
2019-01-28T23:51:22.157Z,51.40
2019-01-28T23:53:58.444Z,51.50
2019-01-28T23:56:30.102Z,51.98
2019-01-28T23:59:01.410Z,52.52
